Time;durP1;ratioP1;P1;durP2;ratioP2;P2;SDS_P1;SDS_P2;PMS_P1;PMS_P2;Temp;Humidity;BMP_temperature;BMP_pressure;BME280_temperature;BME280_humidity;BME280_pressure;Samples;Min_cycle;Max_cycle;Signal;HPM_P1;HPM_P2
2024/01/08 00:02:21;;;;;;;;;;;;;;;6.62;100.00;100246.13;5011189;28;19975;-85
2024/01/08 00:04:47;;;;;;;;;;;;;;;6.65;100.00;100252.22;5011425;28;19922;-85
2024/01/08 00:07:14;;;;;;;;;;;;;;;6.65;100.00;100251.31;5011308;28;19921;-88
2024/01/08 00:09:39;;;;;;;;;;;;;;;6.67;100.00;100241.63;5011486;28;20363;-85
2024/01/08 00:12:05;;;;;;;;;;;;;;;6.71;100.00;100256.47;5011044;28;19957;-84
2024/01/08 00:14:30;;;;;;;;;;;;;;;6.73;100.00;100255.56;5011183;28;20292;-84
2024/01/08 00:16:56;;;;;;;;;;;;;;;6.75;100.00;100257.28;5010145;28;19918;-85
2024/01/08 00:19:21;;;;;;;;;;;;;;;6.80;100.00;100258.94;5014674;28;20292;-86
2024/01/08 00:21:47;;;;;;;;;;;;;;;6.80;100.00;100258.06;5015202;28;19971;-85
2024/01/08 00:24:15;;;;;;;;;;;;;;;6.82;100.00;100257.13;5014548;28;19926;-85
2024/01/08 00:26:40;;;;;;;;;;;;;;;6.80;100.00;100258.06;4996940;28;20281;-85
2024/01/08 00:29:06;;;;;;;;;;;;;;;6.84;100.00;100259.72;5014629;28;19917;-86
2024/01/08 00:31:31;;;;;;;;;;;;;;;6.84;100.00;100257.09;5013687;28;19917;-85
2024/01/08 00:33:57;;;;;;;;;;;;;;;6.80;100.00;100255.44;5015024;28;19917;-86
2024/01/08 00:36:22;;;;;;;;;;;;;;;6.77;100.00;100260.78;5014766;28;19964;-85
2024/01/08 00:38:48;;;;;;;;;;;;;;;6.81;100.00;100259.78;5014875;28;19918;-85
2024/01/08 09:00:51;;;;;;;;;;;;;;;7.04;100.00;100383.19;5465492;23;19930;-84
2024/01/08 09:03:16;;;;;;;;;;;;;;;7.03;100.00;100370.91;4995830;28;19922;-88
2024/01/08 09:05:41;;;;;;;;;;;;;;;7.10;100.00;100377.81;4995106;28;20431;-82
2024/01/08 09:08:06;;;;;;;;;;;;;;;7.12;100.00;100369.88;4995277;28;19984;-85
2024/01/08 09:10:32;;;;;;;;;;;;;;;7.12;100.00;100373.38;5010448;28;20317;-88
2024/01/08 09:12:57;;;;;;;;;;;;;;;7.13;100.00;100366.31;4977832;28;20020;-85
2024/01/08 09:15:22;;;;;;;;;;;;;;;7.17;100.00;100370.66;4976435;28;20277;-85
2024/01/08 09:17:47;;;;;;;;;;;;;;;7.18;100.00;100372.34;4977264;28;19965;-86
2024/01/08 09:20:13;;;;;;;;;;;;;;;7.18;100.00;100381.16;4995769;28;19941;-85
2024/01/08 09:22:38;;;;;;;;;;;;;;;7.19;100.00;100372.34;4995522;28;20297;-82
2024/01/08 09:25:04;;;;;;;;;;;;;;;7.25;100.00;100379.25;4994584;28;19929;-86
2024/01/08 09:27:30;;;;;;;;;;;;;;;7.27;100.00;100380.09;4994654;28;19933;-88
2024/01/08 09:29:57;;;;;;;;;;;;;;;7.28;100.00;100392.38;4995279;28;19922;-84
2024/01/08 09:32:22;;;;;;;;;;;;;;;7.29;100.00;100375.66;4995313;28;20051;-89
2024/01/08 09:34:47;;;;;;;;;;;;;;;7.27;100.00;100385.38;4994627;28;19942;-91
2024/01/08 09:37:13;;;;;;;;;;;;;;;7.29;100.00;100388.84;4995124;28;19976;-88
2024/01/08 09:39:38;;;;;;;;;;;;;;;7.34;100.00;100380.84;4993292;28;20460;-90
2024/01/08 09:42:03;;;;;;;;;;;;;;;7.35;100.00;100380.81;4994203;28;19933;-88
2024/01/08 09:44:31;;;;;;;;;;;;;;;7.36;100.00;100387.81;4992916;28;20274;-90
2024/01/08 09:46:56;;;;;;;;;;;;;;;7.37;100.00;100386.03;4993632;28;19917;-84
2024/01/08 09:49:22;;;;;;;;;;;;;;;7.46;100.00;100399.91;4994513;28;20013;-79
2024/01/08 09:51:48;;;;;;;;;;;;;;;7.45;100.00;100385.00;4993482;28;20380;-85
2024/01/08 09:54:14;;;;;;;;;;;;;;;7.46;100.00;100386.72;4994585;28;19928;-84
2024/01/08 09:56:39;;;;;;;;;;;;;;;7.49;100.00;100387.59;4994606;28;20016;-87
2024/01/08 09:59:07;;;;;;;;;;;;;;;7.49;100.00;100390.22;4994565;28;19928;-86
2024/01/08 10:01:32;;;;;;;;;;;;;;;6.86;100.00;100387.00;4991593;28;20005;-84
2024/01/08 10:03:58;;;;;;;;;;;;;;;6.15;100.00;100378.53;4986727;28;20070;-86
2024/01/08 10:06:24;;;;;;;;;;;;;;;5.92;100.00;100383.22;5009528;28;19918;-85
2024/01/08 10:08:49;;;;;;;;;;;;;;;5.79;100.00;100387.78;4993572;28;19922;-86
2024/01/08 10:11:14;;;;;;;;;;;;;;;5.69;100.00;100384.41;4993649;28;19929;-85
2024/01/08 10:13:40;;;;;;;;;;;;;;;5.56;100.00;100396.84;4994216;28;19914;-86
2024/01/08 10:16:06;;;;;;;;;;;;;;;5.51;100.00;100393.41;4975367;28;19962;-85
2024/01/08 10:18:32;;;;;;;;;;;;;;;5.48;100.00;100388.19;4993265;28;19976;-85
2024/01/08 10:21:13;;;;;;;;;;;;;;;5.42;100.00;100389.13;4993089;28;19922;-85
2024/01/08 10:23:39;;;;;;;;;;;;;;;5.38;100.00;100381.31;4976297;28;19972;-85
2024/01/08 10:26:04;;;;;;;;;;;;;;;5.35;100.00;100373.47;4992997;28;19922;-86
2024/01/08 10:28:33;;;;;;;;;;;;;;;5.29;100.00;100382.28;4976063;28;19918;-85
2024/01/08 10:30:58;;;;;;;;;;;;;;;5.24;100.00;100384.97;4991289;28;19969;-85
2024/01/08 10:33:24;;;;;;;;;;;;;;;5.22;100.00;100386.75;4992863;28;19980;-82
2024/01/08 10:35:50;;;;;;;;;;;;;;;5.20;100.00;100370.13;4993227;28;19922;-84
2024/01/08 10:38:17;;;;;;;;;;;;;;;5.17;100.00;100379.78;4993785;28;19922;-87
2024/01/08 10:40:43;;;;;;;;;;;;;;;5.15;100.00;100369.28;4992896;28;20008;-83
2024/01/08 10:43:08;;;;;;;;;;;;;;;5.12;100.00;100376.34;4992901;28;20064;-81
2024/01/08 10:45:33;;;;;;;;;;;;;;;5.08;100.00;100367.63;4975243;28;19925;-85
2024/01/08 10:48:05;;;;;;;;;;;;;;;5.09;100.00;100369.38;4992668;28;20403;-85
2024/01/08 10:50:30;;;;;;;;;;;;;;;5.04;100.00;100369.44;4993293;28;19925;-83
2024/01/08 10:52:57;;;;;;;;;;;;;;;5.01;100.00;100361.59;4992988;28;19949;-85
2024/01/08 10:55:25;;;;;;;;;;;;;;;5.02;100.00;100360.69;4991199;28;19929;-85
2024/01/08 10:58:01;;;;;;;;;;;;;;;4.99;100.00;100362.47;4992362;28;19921;-85
2024/01/08 11:00:27;;;;;;;;;;;;;;;4.96;100.00;100357.25;4973703;28;20030;-84
2024/01/08 11:02:53;;;;;;;;;;;;;;;4.95;100.00;100351.16;4992130;28;20008;-85
2024/01/08 11:05:21;;;;;;;;;;;;;;;4.94;100.00;100356.41;4975324;28;19922;-83
2024/01/08 11:07:47;;;;;;;;;;;;;;;4.95;100.00;100360.78;4991586;28;19922;-84
2024/01/08 11:10:12;;;;;;;;;;;;;;;4.90;100.00;100356.44;4992429;28;19933;-82
2024/01/08 11:12:54;;;;;;;;;;;;;;;4.93;100.00;100357.28;4974788;28;19926;-82
2024/01/08 11:15:20;;;;;;;;;;;;;;;4.89;100.00;100349.44;4973898;28;19922;-83
2024/01/08 11:17:53;;;;;;;;;;;;;;;4.94;100.00;100348.53;4992163;28;20262;-83
2024/01/08 11:20:39;;;;;;;;;;;;;;;4.89;100.00;100357.31;4991759;28;20411;-83
2024/01/08 11:23:24;;;;;;;;;;;;;;;4.89;100.00;100351.22;4974706;28;19918;-84
2024/01/08 11:25:50;;;;;;;;;;;;;;;4.87;100.00;100353.00;4992184;28;19926;-85
2024/01/08 11:28:16;;;;;;;;;;;;;;;4.84;100.00;100350.41;4975272;28;20391;-83
2024/01/08 11:30:41;;;;;;;;;;;;;;;4.80;100.00;100339.03;4974169;28;20277;-85
2024/01/08 11:33:27;;;;;;;;;;;;;;;4.82;100.00;100345.16;4992613;28;19921;-86
2024/01/08 11:35:58;;;;;;;;;;;;;;;4.79;100.00;100349.56;4980119;28;19925;-86
2024/01/08 11:38:27;;;;;;;;;;;;;;;4.79;100.00;100337.31;4992417;28;19924;-84
2024/01/08 11:40:56;;;;;;;;;;;;;;;4.79;100.00;100329.44;4992368;28;20501;-83
2024/01/08 11:43:22;;;;;;;;;;;;;;;4.78;100.00;100340.81;4974879;28;19917;-93
2024/01/08 11:45:47;;;;;;;;;;;;;;;4.76;100.00;100337.34;4991460;28;19925;-83
2024/01/08 11:48:12;;;;;;;;;;;;;;;4.74;100.00;100339.13;4974973;28;19921;-84
2024/01/08 11:50:39;;;;;;;;;;;;;;;4.73;100.00;100340.00;4992660;28;20424;-84
2024/01/08 11:53:05;;;;;;;;;;;;;;;4.72;100.00;100339.13;4991966;28;19922;-84
2024/01/08 11:55:31;;;;;;;;;;;;;;;4.71;100.00;100342.63;4974204;28;19949;-85
2024/01/08 11:57:57;;;;;;;;;;;;;;;4.74;100.00;100344.38;4990502;28;19922;-85
2024/01/08 12:00:24;;;;;;;;;;;;;;;4.71;100.00;100345.25;4989490;28;19921;-86
2024/01/08 12:02:49;;;;;;;;;;;;;;;4.69;100.00;100351.41;5006443;28;19922;-87
2024/01/08 12:05:15;;;;;;;;;;;;;;;4.66;100.00;100352.31;4992116;28;19926;-85
2024/01/08 12:07:41;;;;;;;;;;;;;;;4.67;100.00;100347.94;4991748;28;19929;-84
2024/01/08 12:10:09;;;;;;;;;;;;;;;4.67;100.00;100345.28;4991749;28;19943;-86
2024/01/08 12:12:35;;;;;;;;;;;;;;;4.67;100.00;100340.91;4974803;28;19918;-85
2024/01/08 12:15:00;;;;;;;;;;;;;;;4.66;100.00;100338.28;4975840;28;19918;-86
2024/01/08 12:17:26;;;;;;;;;;;;;;;4.66;100.00;100340.91;4978966;28;19918;-85
2024/01/08 12:19:52;;;;;;;;;;;;;;;4.66;100.00;100341.81;4995284;28;20048;-87
2024/01/08 12:22:18;;;;;;;;;;;;;;;4.63;100.00;100339.22;4978271;28;20008;-85
2024/01/08 12:24:47;;;;;;;;;;;;;;;4.67;100.00;100335.66;4977921;28;20009;-83
2024/01/08 12:27:15;;;;;;;;;;;;;;;4.63;100.00;100338.34;5010732;28;19922;-88
2024/01/08 12:29:41;;;;;;;;;;;;;;;4.64;100.00;100337.44;4994621;28;19928;-87
2024/01/08 12:32:08;;;;;;;;;;;;;;;4.60;100.00;100333.13;4978428;28;19918;-82
2024/01/08 12:34:34;;;;;;;;;;;;;;;4.59;100.00;100334.00;4995280;28;19933;-84
2024/01/08 12:37:00;;;;;;;;;;;;;;;4.61;100.00;100340.09;4995700;28;20407;-83
2024/01/08 12:39:33;;;;;;;;;;;;;;;4.58;100.00;100333.16;4995409;28;19926;-84
2024/01/08 12:42:00;;;;;;;;;;;;;;;4.59;100.00;100326.13;4995082;28;19921;-85
2024/01/08 12:44:26;;;;;;;;;;;;;;;4.61;100.00;100334.84;4994316;28;19922;-84
2024/01/08 12:46:51;;;;;;;;;;;;;;;4.58;100.00;100329.63;4995908;28;19925;-89
2024/01/08 12:49:17;;;;;;;;;;;;;;;4.60;100.00;100333.13;4978263;28;20289;-81
2024/01/08 12:51:42;;;;;;;;;;;;;;;4.57;100.00;100335.78;4995942;28;19996;-90
2024/01/08 12:54:08;;;;;;;;;;;;;;;4.61;100.00;100324.34;4995666;28;19929;-88
2024/01/08 12:56:33;;;;;;;;;;;;;;;4.58;100.00;100329.63;4994597;28;20012;-89
2024/01/08 12:58:58;;;;;;;;;;;;;;;4.60;100.00;100333.13;4995102;28;19925;-85
2024/01/08 13:01:23;;;;;;;;;;;;;;;4.58;100.00;100327.00;4976954;28;19925;-82
2024/01/08 13:03:50;;;;;;;;;;;;;;;4.59;100.00;100326.13;4995222;28;19922;-83
2024/01/08 13:06:19;;;;;;;;;;;;;;;4.57;100.00;100328.78;4995565;28;19960;-83
2024/01/08 13:08:44;;;;;;;;;;;;;;;4.53;100.00;100333.19;4994572;28;19922;-85
2024/01/08 13:11:10;;;;;;;;;;;;;;;4.55;100.00;100330.56;4994087;28;19918;-83
2024/01/08 13:13:35;;;;;;;;;;;;;;;4.51;100.00;100326.19;4994952;28;20365;-82
2024/01/08 13:16:01;;;;;;;;;;;;;;;4.53;100.00;100325.31;4993614;28;19977;-83
2024/01/08 13:18:26;;;;;;;;;;;;;;;4.51;100.00;100334.06;4977953;28;19972;-83
2024/01/08 13:20:51;;;;;;;;;;;;;;;4.50;100.00;100327.97;4978111;28;19917;-84
2024/01/08 13:23:17;;;;;;;;;;;;;;;4.51;100.00;100337.56;4977356;28;19926;-90
2024/01/08 13:25:42;;;;;;;;;;;;;;;4.51;100.00;100337.56;4994933;28;19952;-86
2024/01/08 13:28:08;;;;;;;;;;;;;;;4.53;100.00;100343.69;4976462;28;20372;-93
2024/01/08 13:30:33;;;;;;;;;;;;;;;4.50;100.00;100343.72;4993986;28;19983;-87
2024/01/08 13:32:58;;;;;;;;;;;;;;;4.52;100.00;100341.06;4995027;28;19926;-84
2024/01/08 13:35:23;;;;;;;;;;;;;;;4.54;100.00;100336.69;4977155;28;19928;-85
2024/01/08 13:37:49;;;;;;;;;;;;;;;4.50;100.00;100340.19;4994870;28;19922;-85
2024/01/08 13:40:14;;;;;;;;;;;;;;;4.49;100.00;100331.47;4994016;28;19922;-84
2024/01/08 13:42:40;;;;;;;;;;;;;;;4.50;100.00;100345.44;4993605;28;19928;-85
2024/01/08 13:45:08;;;;;;;;;;;;;;;4.52;100.00;100343.69;4974572;28;19949;-86
2024/01/08 13:47:33;;;;;;;;;;;;;;;4.49;100.00;100339.34;4993357;28;19922;-83
2024/01/08 13:49:58;;;;;;;;;;;;;;;4.46;100.00;100346.38;4976168;28;19928;-87
2024/01/08 13:52:26;;;;;;;;;;;;;;;4.46;100.00;100341.13;4993424;28;19960;-85
2024/01/08 13:54:51;;;;;;;;;;;;;;;4.50;100.00;100342.81;4993507;28;19953;-84
2024/01/08 13:57:16;;;;;;;;;;;;;;;4.45;100.00;100342.88;4994213;28;20348;-91
2024/01/08 13:59:41;;;;;;;;;;;;;;;4.45;100.00;100353.38;4976051;28;19914;-83
2024/01/08 14:02:09;;;;;;;;;;;;;;;4.43;100.00;100357.75;4976789;28;19922;-86
2024/01/08 14:04:35;;;;;;;;;;;;;;;4.44;100.00;100353.41;4994521;28;19976;-82
2024/01/08 14:07:00;;;;;;;;;;;;;;;4.45;100.00;100349.88;4986804;28;19922;-84
2024/01/08 14:09:25;;;;;;;;;;;;;;;4.41;100.00;100349.03;4994524;28;19961;-85
2024/01/08 14:11:50;;;;;;;;;;;;;;;4.41;100.00;100359.53;4977198;28;19921;-87
2024/01/08 14:14:16;;;;;;;;;;;;;;;4.45;100.00;100369.13;4987266;28;19964;-84
2024/01/08 14:16:41;;;;;;;;;;;;;;;4.44;100.00;100366.53;4992708;28;20460;-84
2024/01/08 14:19:08;;;;;;;;;;;;;;;4.43;100.00;100357.75;4994207;28;19944;-88
2024/01/08 14:21:33;;;;;;;;;;;;;;;4.42;100.00;100360.41;5009037;28;20336;-85
2024/01/08 14:23:58;;;;;;;;;;;;;;;4.44;100.00;100371.78;4994124;28;20005;-86
2024/01/08 14:26:24;;;;;;;;;;;;;;;4.44;100.00;100361.28;4993984;28;19928;-89
2024/01/08 14:28:49;;;;;;;;;;;;;;;4.42;100.00;100370.88;4993874;28;19917;-85
2024/01/08 14:31:16;;;;;;;;;;;;;;;4.46;100.00;100377.88;4992198;28;19925;-85
2024/01/08 14:33:41;;;;;;;;;;;;;;;4.43;100.00;100375.28;4972804;28;20366;-85
2024/01/08 14:36:09;;;;;;;;;;;;;;;4.43;100.00;100373.50;4988773;28;19917;-85
2024/01/08 14:38:34;;;;;;;;;;;;;;;4.42;100.00;100381.38;4975831;28;20531;-84
2024/01/08 14:41:00;;;;;;;;;;;;;;;4.41;100.00;100391.03;4993478;28;19921;-84
2024/01/08 14:43:25;;;;;;;;;;;;;;;4.41;100.00;100380.53;4993378;28;19925;-81
2024/01/08 14:45:50;;;;;;;;;;;;;;;4.42;100.00;100381.38;4992132;28;20001;-87
2024/01/08 14:48:16;;;;;;;;;;;;;;;4.39;100.00;100386.66;4993396;28;19980;-86
2024/01/08 14:50:41;;;;;;;;;;;;;;;4.42;100.00;100384.00;4976147;28;19917;-85
2024/01/08 14:53:06;;;;;;;;;;;;;;;4.43;100.00;100389.25;4993369;28;20409;-86
2024/01/08 14:55:32;;;;;;;;;;;;;;;4.38;100.00;100385.78;4992726;28;19945;-86
2024/01/08 14:57:57;;;;;;;;;;;;;;;4.41;100.00;100388.41;4975943;28;20016;-86
2024/01/08 15:00:25;;;;;;;;;;;;;;;4.36;100.00;100387.56;5007679;28;20037;-86
2024/01/08 15:02:52;;;;;;;;;;;;;;;4.37;100.00;100399.78;4975814;28;19977;-86
2024/01/08 15:05:17;;;;;;;;;;;;;;;4.38;100.00;100388.41;4991844;28;19918;-87
2024/01/08 15:07:43;;;;;;;;;;;;;;;4.38;100.00;100390.19;4974963;28;19930;-86
2024/01/08 15:10:08;;;;;;;;;;;;;;;4.38;100.00;100398.06;4975440;28;19922;-86
2024/01/08 15:12:33;;;;;;;;;;;;;;;4.35;100.00;100396.31;4993126;28;19918;-86
2024/01/08 15:14:59;;;;;;;;;;;;;;;4.35;100.00;100393.69;4974269;28;19922;-86
2024/01/08 15:17:24;;;;;;;;;;;;;;;4.36;100.00;100405.94;4991164;28;20293;-86
2024/01/08 15:19:50;;;;;;;;;;;;;;;4.38;100.00;100401.53;4975240;28;20012;-86
2024/01/08 15:22:15;;;;;;;;;;;;;;;4.31;100.00;100410.34;4991638;28;19925;-87
2024/01/08 15:24:43;;;;;;;;;;;;;;;4.32;100.00;100410.34;4992749;28;20440;-86
2024/01/08 15:27:08;;;;;;;;;;;;;;;4.34;100.00;100415.56;4974804;28;19933;-87
2024/01/08 15:29:33;;;;;;;;;;;;;;;4.32;100.00;100412.97;4990786;28;20293;-88
2024/01/08 15:31:59;;;;;;;;;;;;;;;4.36;100.00;100413.81;4992873;28;19925;-88
2024/01/08 15:34:26;;;;;;;;;;;;;;;4.36;100.00;100413.81;4991401;28;19973;-89
2024/01/08 15:36:54;;;;;;;;;;;;;;;5.25;100.00;100415.63;4992725;28;19921;-87
2024/01/08 15:39:19;;;;;;;;;;;;;;;4.67;100.00;100411.78;4991406;28;19925;-86
2024/01/08 15:41:45;;;;;;;;;;;;;;;4.48;100.00;100418.97;5006201;28;19921;-86
2024/01/08 15:44:10;;;;;;;;;;;;;;;4.39;100.00;100421.66;4974949;28;19926;-88
2024/01/08 15:46:49;;;;;;;;;;;;;;;4.41;100.00;100419.88;4989646;28;19918;-86
2024/01/08 15:49:14;;;;;;;;;;;;;;;4.38;100.00;100414.66;4989405;28;20008;-89
2024/01/08 15:51:39;;;;;;;;;;;;;;;4.33;100.00;100422.56;4992050;28;19928;-85
2024/01/08 15:54:05;;;;;;;;;;;;;;;4.54;100.00;100428.53;4974761;28;19922;-86
2024/01/08 15:56:30;;;;;;;;;;;;;;;4.87;100.00;100426.50;4992647;28;19969;-85
2024/01/08 15:58:59;;;;;;;;;;;;;;;5.15;100.00;100429.72;4991899;28;19965;-88
2024/01/08 16:01:25;;;;;;;;;;;;;;;5.37;100.00;100432.13;4972944;28;20395;-89
2024/01/08 16:03:50;;;;;;;;;;;;;;;5.54;100.00;100443.31;4991642;28;19922;-87
2024/01/08 16:06:16;;;;;;;;;;;;;;;5.66;100.00;100446.69;4992449;28;20002;-87
2024/01/08 16:08:41;;;;;;;;;;;;;;;5.74;100.00;100436.94;4991668;28;19922;-88
2024/01/08 16:11:06;;;;;;;;;;;;;;;5.83;100.00;100455.25;4991562;28;19925;-89
2024/01/08 16:13:31;;;;;;;;;;;;;;;5.90;100.00;100462.16;4991280;28;19980;-88
2024/01/08 16:15:57;;;;;;;;;;;;;;;5.98;100.00;100468.25;4973805;28;19918;-87
2024/01/08 16:18:22;;;;;;;;;;;;;;;6.02;100.00;100466.44;4991771;28;19980;-88
2024/01/08 16:20:48;;;;;;;;;;;;;;;6.08;100.00;100468.97;4992359;28;19925;-88
2024/01/08 16:23:14;;;;;;;;;;;;;;;6.14;100.00;100462.75;4992302;28;19926;-87
2024/01/08 16:25:40;;;;;;;;;;;;;;;6.16;100.00;100467.13;4974134;28;20381;-88
2024/01/08 16:28:05;;;;;;;;;;;;;;;6.19;100.00;100466.22;5007333;28;19918;-83
2024/01/08 16:30:30;;;;;;;;;;;;;;;6.23;100.00;100472.28;4990832;28;20402;-81
2024/01/08 16:32:56;;;;;;;;;;;;;;;6.28;100.00;100471.31;4991840;28;19922;-86
2024/01/08 16:35:21;;;;;;;;;;;;;;;6.33;100.00;100479.16;4991219;28;19926;-86
2024/01/08 16:37:58;;;;;;;;;;;;;;;6.35;100.00;100475.63;4991230;28;20024;-84
2024/01/08 16:40:23;;;;;;;;;;;;;;;6.40;100.00;100485.19;4973651;28;19926;-91
2024/01/08 16:42:48;;;;;;;;;;;;;;;6.44;100.00;100476.38;4973666;28;19929;-85
2024/01/08 16:45:13;;;;;;;;;;;;;;;6.46;100.00;100480.72;4990305;28;20016;-84
2024/01/08 16:47:39;;;;;;;;;;;;;;;6.51;100.00;100485.91;4990743;28;19941;-84
2024/01/08 16:50:07;;;;;;;;;;;;;;;6.57;100.00;100485.81;4991821;28;19918;-88
2024/01/08 16:52:32;;;;;;;;;;;;;;;6.63;100.00;100492.75;4991208;28;19932;-88
2024/01/08 16:55:00;;;;;;;;;;;;;;;6.66;100.00;100487.44;4991961;28;19922;-88
2024/01/08 16:57:26;;;;;;;;;;;;;;;6.72;100.00;100493.50;4991951;28;20012;-88
2024/01/08 16:59:51;;;;;;;;;;;;;;;6.73;100.00;100496.97;4991800;28;20000;-87
2024/01/08 17:02:18;;;;;;;;;;;;;;;6.73;100.00;100497.88;4995305;28;20439;-88
2024/01/08 17:04:54;;;;;;;;;;;;;;;6.78;100.00;100502.19;4995457;28;19960;-86
2024/01/08 17:07:20;;;;;;;;;;;;;;;6.78;100.00;100504.81;4995501;28;19941;-87
2024/01/08 17:09:47;;;;;;;;;;;;;;;6.84;100.00;100510.00;4977974;28;20361;-87
2024/01/08 17:12:12;;;;;;;;;;;;;;;6.83;100.00;100505.59;4994789;28;19918;-86
2024/01/08 17:14:41;;;;;;;;;;;;;;;6.85;100.00;100503.84;4993830;28;20144;-86
2024/01/08 17:17:06;;;;;;;;;;;;;;;6.86;100.00;100508.19;4995278;28;20497;-87
2024/01/08 17:19:32;;;;;;;;;;;;;;;6.88;100.00;100498.53;4994955;28;19939;-87
2024/01/08 17:21:57;;;;;;;;;;;;;;;6.87;100.00;100505.53;4977925;28;19956;-87
2024/01/08 17:24:25;;;;;;;;;;;;;;;6.89;100.00;100506.41;4995170;28;19914;-86
2024/01/08 17:26:52;;;;;;;;;;;;;;;6.95;100.00;100509.81;4994971;28;19925;-85
2024/01/08 17:29:17;;;;;;;;;;;;;;;6.98;100.00;100505.38;4993863;28;20520;-88
2024/01/08 17:31:43;;;;;;;;;;;;;;;6.98;100.00;100510.63;4976181;28;19953;-86
2024/01/08 17:34:11;;;;;;;;;;;;;;;7.00;100.00;100519.38;4993912;28;19942;-87
2024/01/08 17:36:36;;;;;;;;;;;;;;;6.98;100.00;100520.31;4992583;28;19944;-87
2024/01/08 17:39:02;;;;;;;;;;;;;;;6.99;100.00;100533.47;4977418;28;20377;-86
2024/01/08 17:41:28;;;;;;;;;;;;;;;7.01;100.00;100525.53;4994697;28;19921;-87
2024/01/08 17:43:53;;;;;;;;;;;;;;;7.04;100.00;100531.63;4977341;28;19924;-87
2024/01/08 17:46:21;;;;;;;;;;;;;;;7.04;100.00;100533.41;5008470;28;19918;-87
2024/01/08 17:48:46;;;;;;;;;;;;;;;7.06;100.00;100534.22;4993899;28;19922;-87
2024/01/08 17:51:12;;;;;;;;;;;;;;;7.07;100.00;100528.94;4994760;28;19925;-88
2024/01/08 17:53:37;;;;;;;;;;;;;;;7.09;100.00;100534.19;4994610;28;20005;-89
2024/01/08 17:56:03;;;;;;;;;;;;;;;7.11;100.00;100528.88;4994264;28;19918;-89
2024/01/08 17:58:29;;;;;;;;;;;;;;;7.15;100.00;100543.72;4994349;28;20381;-88
2024/01/08 18:00:56;;;;;;;;;;;;;;;7.14;100.00;100537.59;4991741;28;19976;-87
2024/01/08 18:03:24;;;;;;;;;;;;;;;7.16;100.00;100535.81;4992582;28;19925;-88
2024/01/08 18:06:00;;;;;;;;;;;;;;;7.17;100.00;100529.66;4992647;28;19964;-88
2024/01/08 18:08:31;;;;;;;;;;;;;;;7.21;100.00;100538.34;4993347;28;19918;-89
2024/01/08 18:10:56;;;;;;;;;;;;;;;7.24;100.00;100538.31;4992244;28;20361;-89
2024/01/08 18:13:22;;;;;;;;;;;;;;;7.24;100.00;100533.03;4992489;28;19921;-87
2024/01/08 18:16:07;;;;;;;;;;;;;;;7.27;100.00;100535.63;4991618;28;19929;-89
2024/01/08 18:18:35;;;;;;;;;;;;;;;7.26;100.00;100542.66;4993894;28;20288;-89
2024/01/08 18:21:01;;;;;;;;;;;;;;;7.27;100.00;100539.16;4994319;28;20353;-87
2024/01/08 18:23:26;;;;;;;;;;;;;;;7.36;100.00;100548.66;4994106;28;19941;-88
2024/01/08 18:25:51;;;;;;;;;;;;;;;7.28;100.00;100538.22;4992450;28;19940;-89
2024/01/08 18:28:16;;;;;;;;;;;;;;;7.32;100.00;100549.59;4992548;28;19917;-88
2024/01/08 18:30:45;;;;;;;;;;;;;;;7.35;100.00;100562.72;4990708;28;19968;-87
2024/01/08 18:33:20;;;;;;;;;;;;;;;7.33;100.00;100561.88;4991793;28;19957;-89
2024/01/08 18:35:51;;;;;;;;;;;;;;;7.33;100.00;100564.53;4992351;28;20381;-87
2024/01/08 18:38:19;;;;;;;;;;;;;;;7.36;100.00;100564.47;4993530;28;19925;-88
2024/01/08 18:40:44;;;;;;;;;;;;;;;7.35;100.00;100560.09;4976163;28;19924;-88
2024/01/08 18:43:09;;;;;;;;;;;;;;;7.37;100.00;100562.69;4976237;28;19918;-79
2024/01/08 18:45:35;;;;;;;;;;;;;;;7.40;100.00;100565.28;4992230;28;19924;-89
2024/01/08 18:48:00;;;;;;;;;;;;;;;7.40;100.00;100566.16;4975906;28;19922;-87
2024/01/08 18:50:25;;;;;;;;;;;;;;;7.41;100.00;100561.75;4992593;28;20356;-86
2024/01/08 18:52:55;;;;;;;;;;;;;;;7.41;100.00;100567.88;4992479;28;20000;-88
2024/01/08 18:55:21;;;;;;;;;;;;;;;7.42;100.00;100568.78;4992222;28;20357;-87
2024/01/08 18:57:48;;;;;;;;;;;;;;;7.43;100.00;100571.38;4991098;28;19918;-88
2024/01/08 19:00:13;;;;;;;;;;;;;;;6.69;100.00;100577.81;4974929;28;19920;-89
2024/01/08 19:02:39;;;;;;;;;;;;;;;6.05;100.00;100578.63;4992129;28;20012;-81
2024/01/08 19:05:05;;;;;;;;;;;;;;;5.85;100.00;100587.59;4992707;28;20473;-88
2024/01/08 19:07:30;;;;;;;;;;;;;;;5.67;100.00;100579.91;4974320;28;19918;-89
2024/01/08 19:09:55;;;;;;;;;;;;;;;5.57;100.00;100590.50;4975463;28;19928;-89
2024/01/08 19:12:26;;;;;;;;;;;;;;;5.49;100.00;100594.97;4990581;28;19914;-88
2024/01/08 19:14:54;;;;;;;;;;;;;;;5.46;100.00;100595.88;4989740;28;19969;-89
2024/01/08 19:17:20;;;;;;;;;;;;;;;5.38;100.00;100594.19;4992198;28;20007;-90
2024/01/08 19:19:45;;;;;;;;;;;;;;;5.34;100.00;100595.97;4991545;28;19969;-89
2024/01/08 19:22:10;;;;;;;;;;;;;;;5.27;100.00;100603.03;4991826;28;20366;-89
2024/01/08 19:24:36;;;;;;;;;;;;;;;5.26;100.00;100603.94;4990810;28;20288;-89
2024/01/08 19:27:01;;;;;;;;;;;;;;;5.22;100.00;100603.97;4991354;28;19922;-89
2024/01/08 19:29:27;;;;;;;;;;;;;;;5.16;100.00;100596.13;4990994;28;19922;-88
2024/01/08 19:31:55;;;;;;;;;;;;;;;5.12;100.00;100595.25;4991530;28;19925;-88
2024/01/08 19:34:22;;;;;;;;;;;;;;;5.16;100.00;100598.75;4991539;28;19918;-88
2024/01/08 19:36:47;;;;;;;;;;;;;;;5.11;100.00;100601.41;4974871;28;19922;-89
2024/01/08 19:39:13;;;;;;;;;;;;;;;5.11;100.00;100603.19;4991171;28;20365;-90
2024/01/08 19:41:39;;;;;;;;;;;;;;;5.07;100.00;100604.94;4991757;28;20273;-89
2024/01/08 19:44:04;;;;;;;;;;;;;;;5.03;100.00;100611.13;4991789;28;19922;-88
2024/01/08 19:46:29;;;;;;;;;;;;;;;4.99;100.00;100606.75;4990746;28;19918;-89
2024/01/08 19:48:54;;;;;;;;;;;;;;;5.00;100.00;100611.13;4991437;28;20071;-88
2024/01/08 19:51:20;;;;;;;;;;;;;;;4.96;100.00;100609.41;4990741;28;19918;-89
2024/01/08 19:53:46;;;;;;;;;;;;;;;4.98;100.00;100620.75;4992653;28;20005;-88
2024/01/08 19:56:12;;;;;;;;;;;;;;;4.93;100.00;100623.44;4975408;28;20361;-88
2024/01/08 19:58:37;;;;;;;;;;;;;;;4.89;100.00;100630.44;5007796;28;20480;-88
2024/01/08 20:01:03;;;;;;;;;;;;;;;4.84;100.00;100621.72;4991334;28;19980;-88
2024/01/08 20:03:28;;;;;;;;;;;;;;;4.87;100.00;100634.84;4992781;28;19922;-89
2024/01/08 20:05:53;;;;;;;;;;;;;;;4.83;100.00;100630.47;4992516;28;20251;-89
2024/01/08 20:08:19;;;;;;;;;;;;;;;4.76;100.00;100631.41;4992582;28;19921;-90
2024/01/08 20:10:44;;;;;;;;;;;;;;;4.82;100.00;100638.34;4992593;28;19953;-88
2024/01/08 20:13:09;;;;;;;;;;;;;;;4.78;100.00;100645.38;4992737;28;20348;-89
2024/01/08 20:15:35;;;;;;;;;;;;;;;4.76;100.00;100641.91;4974204;28;19925;-89
2024/01/08 20:18:01;;;;;;;;;;;;;;;4.78;100.00;100640.13;4992446;28;19929;-88
2024/01/08 20:20:28;;;;;;;;;;;;;;;4.73;100.00;100637.53;4991736;28;19918;-89
2024/01/08 20:22:53;;;;;;;;;;;;;;;4.74;100.00;100638.44;4992093;28;19926;-89
2024/01/08 20:25:21;;;;;;;;;;;;;;;4.72;100.00;100643.69;4992510;28;19929;-89
2024/01/08 20:27:47;;;;;;;;;;;;;;;4.72;100.00;100643.69;4992363;28;19918;-88
2024/01/08 20:30:12;;;;;;;;;;;;;;;4.68;100.00;100643.72;4973842;28;20013;-88
2024/01/08 20:32:37;;;;;;;;;;;;;;;4.67;100.00;100647.19;4992494;28;20303;-89
2024/01/08 20:35:03;;;;;;;;;;;;;;;4.67;100.00;100639.31;4993395;28;20334;-89
2024/01/08 20:37:29;;;;;;;;;;;;;;;4.70;100.00;100647.19;4996303;28;19922;-90
2024/01/08 20:39:54;;;;;;;;;;;;;;;4.68;100.00;100641.09;4996049;28;20020;-89
2024/01/08 20:42:19;;;;;;;;;;;;;;;4.67;100.00;100645.44;4996027;28;19922;-87
2024/01/08 20:44:45;;;;;;;;;;;;;;;4.66;100.00;100648.06;4994893;28;19933;-87
2024/01/08 20:47:10;;;;;;;;;;;;;;;4.61;100.00;100649.84;4995831;28;19944;-89
2024/01/08 20:49:37;;;;;;;;;;;;;;;4.63;100.00;100642.88;4995719;28;19960;-87
2024/01/08 20:52:03;;;;;;;;;;;;;;;4.59;100.00;100649.84;4995719;28;20016;-88